Dennis J. Pasentine — WDF2813 — position and weather

sailwx.info

Track history (hours):
 
Tides and Currents Weather Stations Pressure Air Temp Water Temp Dewpoint Dewpoint Depression Visibility Wind Speed Wind Dir Waves Ship Positions

Dennis J. Pasentine

Owner: Florida Marine Transporters, Inc., Mandeville, LA. More information available from US FCC via Universal Licensing System and Coast Guard Vessel Documentation Center.

Last reported at 2017-Sep-19 09:22 UTC. Time now 2017-Sep-24 03:33 UTC.
Position N 32°01' W 091°04'.

Length 42 m; draft 3.2 m.

Type: Ship (hazmat cat A). MMSI: 367432180.

Date/timePositionNaut miles runAvg speedWind from/ knotsBaromVisibWave heightAir tempDewpointWater temp
2017-Sep-19 09:22N 32°01' W 091°04'5 6.8
2017-Sep-19 08:35N 32°06' W 091°06'1 8.0
2017-Sep-19 08:30N 32°07' W 091°06'3 4.9
2017-Sep-19 07:57N 32°07' W 091°03'3 6.4
2017-Sep-19 07:30N 32°09' W 091°00'4 7.7
2017-Sep-19 07:00N 32°12' W 090°59'4 7.9
2017-Sep-19 06:30N 32°16' W 090°58'4 8.0
2017-Sep-19 06:00N 32°19' W 090°54'3 5.9
2017-Sep-19 05:30N 32°21' W 090°57'3 6.4
2017-Sep-19 05:00N 32°23' W 091°00'3 6.6
2017-Sep-19 04:30N 32°26' W 091°01'4 7.6
2017-Sep-19 04:00N 32°27' W 091°05'3 6.8
2017-Sep-19 03:30N 32°31' W 091°07'4 7.4
2017-Sep-19 03:00N 32°34' W 091°07'4 7.5
2017-Sep-19 02:30N 32°37' W 091°09'4 7.2
2017-Sep-19 02:00N 32°40' W 091°07'6 4.2
2017-Sep-19 00:30N 32°46' W 091°09'  
2017-Sep-15 10:44N 38°55' W 090°16'1 5.3
2017-Sep-15 10:28N 38°55' W 090°18'2 5.0
2017-Sep-15 10:00N 38°56' W 090°21'3 5.1
2017-Sep-15 09:30N 38°58' W 090°24'3 5.1
2017-Sep-15 09:00N 38°58' W 090°27'2 4.5
2017-Sep-15 08:30N 38°58' W 090°30'2 3.8
2017-Sep-15 08:00N 38°57' W 090°32'  
Track history (hours):
 
Tides and Currents Weather Stations Pressure Air Temp Water Temp Dewpoint Dewpoint Depression Visibility Wind Speed Wind Dir Waves Ship Positions

Dennis J. Pasentine

Owner: Florida Marine Transporters, Inc., Mandeville, LA. More information available from US FCC via Universal Licensing System and Coast Guard Vessel Documentation Center.

Last reported at 2017-Sep-19 09:22 UTC. Time now 2017-Sep-24 03:33 UTC.
Position N 32°01' W 091°04'.

Length 42 m; draft 3.2 m.

Type: Ship (hazmat cat A). MMSI: 367432180.

Date/timePositionNaut miles runAvg speedWind from/ knotsBaromVisibWave heightAir tempDewpointWater temp
2017-Sep-19 09:22N 32°01' W 091°04'5 6.8
2017-Sep-19 08:35N 32°06' W 091°06'1 8.0
2017-Sep-19 08:30N 32°07' W 091°06'3 4.9
2017-Sep-19 07:57N 32°07' W 091°03'3 6.4
2017-Sep-19 07:30N 32°09' W 091°00'4 7.7
2017-Sep-19 07:00N 32°12' W 090°59'4 7.9
2017-Sep-19 06:30N 32°16' W 090°58'4 8.0
2017-Sep-19 06:00N 32°19' W 090°54'3 5.9
2017-Sep-19 05:30N 32°21' W 090°57'3 6.4
2017-Sep-19 05:00N 32°23' W 091°00'3 6.6
2017-Sep-19 04:30N 32°26' W 091°01'4 7.6
2017-Sep-19 04:00N 32°27' W 091°05'3 6.8
2017-Sep-19 03:30N 32°31' W 091°07'4 7.4
2017-Sep-19 03:00N 32°34' W 091°07'4 7.5
2017-Sep-19 02:30N 32°37' W 091°09'4 7.2
2017-Sep-19 02:00N 32°40' W 091°07'6 4.2
2017-Sep-19 00:30N 32°46' W 091°09'  
2017-Sep-15 10:44N 38°55' W 090°16'1 5.3
2017-Sep-15 10:28N 38°55' W 090°18'2 5.0
2017-Sep-15 10:00N 38°56' W 090°21'3 5.1
2017-Sep-15 09:30N 38°58' W 090°24'3 5.1
2017-Sep-15 09:00N 38°58' W 090°27'2 4.5
2017-Sep-15 08:30N 38°58' W 090°30'2 3.8
2017-Sep-15 08:00N 38°57' W 090°32'  

Dump ship's entire track history